sensor_id;sensor_type;location;lat;lon;timestamp;pressure;altitude;pressure_sealevel;temperature;humidity
62978;BME280;49073;42.352;23.808;2023-08-07T00:00:23;94083.97;;;19.16;62.63
62978;BME280;49073;42.352;23.808;2023-08-07T00:03:23;94083.88;;;19.20;62.69
62978;BME280;49073;42.352;23.808;2023-08-07T00:06:24;94086.00;;;19.29;62.37
62978;BME280;49073;42.352;23.808;2023-08-07T00:09:24;94082.88;;;19.14;63.44
62978;BME280;49073;42.352;23.808;2023-08-07T00:12:25;94092.56;;;19.11;63.48
62978;BME280;49073;42.352;23.808;2023-08-07T00:15:27;94091.03;;;18.94;63.98
62978;BME280;49073;42.352;23.808;2023-08-07T00:18:29;94089.44;;;18.96;64.07
62978;BME280;49073;42.352;23.808;2023-08-07T00:21:29;94093.81;;;18.90;64.12
62978;BME280;49073;42.352;23.808;2023-08-07T00:24:30;94097.63;;;18.76;64.64
62978;BME280;49073;42.352;23.808;2023-08-07T00:27:31;94091.38;;;18.63;64.99
62978;BME280;49073;42.352;23.808;2023-08-07T00:30:31;94091.03;;;18.60;65.13
62978;BME280;49073;42.352;23.808;2023-08-07T00:33:32;94095.47;;;18.51;65.70
62978;BME280;49073;42.352;23.808;2023-08-07T00:36:35;94091.25;;;18.50;65.50
62978;BME280;49073;42.352;23.808;2023-08-07T00:39:35;94086.72;;;18.26;65.93
62978;BME280;49073;42.352;23.808;2023-08-07T00:42:36;94086.66;;;18.30;66.14
62978;BME280;49073;42.352;23.808;2023-08-07T00:45:43;94088.53;;;18.33;65.53
62978;BME280;49073;42.352;23.808;2023-08-07T00:48:45;94085.56;;;18.44;65.36
62978;BME280;49073;42.352;23.808;2023-08-07T00:51:46;94083.47;;;18.35;65.46
62978;BME280;49073;42.352;23.808;2023-08-07T00:54:46;94090.53;;;18.29;65.21
62978;BME280;49073;42.352;23.808;2023-08-07T00:57:47;94101.66;;;18.31;64.98
62978;BME280;49073;42.352;23.808;2023-08-07T01:00:48;94095.09;;;18.32;65.01
62978;BME280;49073;42.352;23.808;2023-08-07T01:03:49;94085.56;;;18.07;65.58
62978;BME280;49073;42.352;23.808;2023-08-07T01:06:49;94097.03;;;18.11;65.77
62978;BME280;49073;42.352;23.808;2023-08-07T01:09:50;94098.91;;;18.14;65.81
62978;BME280;49073;42.352;23.808;2023-08-07T01:12:59;94100.50;;;18.12;66.59
62978;BME280;49073;42.352;23.808;2023-08-07T01:16:08;94108.59;;;18.12;66.14
62978;BME280;49073;42.352;23.808;2023-08-07T01:19:25;94112.19;;;18.05;67.46
62978;BME280;49073;42.352;23.808;2023-08-07T01:22:26;94105.72;;;18.02;66.75
62978;BME280;49073;42.352;23.808;2023-08-07T01:25:26;94105.28;;;18.04;66.54
62978;BME280;49073;42.352;23.808;2023-08-07T01:28:35;94119.63;;;18.17;66.62
62978;BME280;49073;42.352;23.808;2023-08-07T01:31:36;94122.06;;;18.32;65.75
62978;BME280;49073;42.352;23.808;2023-08-07T01:34:41;94122.81;;;18.32;65.93
62978;BME280;49073;42.352;23.808;2023-08-07T01:37:42;94129.47;;;18.28;65.74
62978;BME280;49073;42.352;23.808;2023-08-07T01:40:46;94128.50;;;18.18;66.46
62978;BME280;49073;42.352;23.808;2023-08-07T01:43:48;94125.19;;;18.10;66.73
62978;BME280;49073;42.352;23.808;2023-08-07T01:46:48;94127.00;;;18.17;66.63
62978;BME280;49073;42.352;23.808;2023-08-07T01:49:49;94127.47;;;18.12;67.32
62978;BME280;49073;42.352;23.808;2023-08-07T01:52:50;94137.09;;;18.13;67.75
62978;BME280;49073;42.352;23.808;2023-08-07T01:55:50;94136.44;;;18.05;67.97
62978;BME280;49073;42.352;23.808;2023-08-07T01:58:51;94144.31;;;17.96;68.57
62978;BME280;49073;42.352;23.808;2023-08-07T02:01:51;94142.16;;;17.87;68.89
62978;BME280;49073;42.352;23.808;2023-08-07T02:04:52;94150.88;;;17.95;68.83
62978;BME280;49073;42.352;23.808;2023-08-07T02:07:52;94153.50;;;17.98;69.15
62978;BME280;49073;42.352;23.808;2023-08-07T02:10:53;94153.09;;;18.00;69.29
62978;BME280;49073;42.352;23.808;2023-08-07T02:13:53;94153.91;;;17.97;69.04
62978;BME280;49073;42.352;23.808;2023-08-07T02:16:54;94152.88;;;17.91;68.86
62978;BME280;49073;42.352;23.808;2023-08-07T02:19:54;94150.09;;;17.74;69.34
62978;BME280;49073;42.352;23.808;2023-08-07T02:22:55;94155.50;;;17.74;70.10
62978;BME280;49073;42.352;23.808;2023-08-07T02:25:55;94152.53;;;17.65;69.85
62978;BME280;49073;42.352;23.808;2023-08-07T02:28:56;94162.97;;;17.63;70.28
62978;BME280;49073;42.352;23.808;2023-08-07T02:31:56;94165.09;;;17.51;70.56
62978;BME280;49073;42.352;23.808;2023-08-07T02:34:57;94166.63;;;17.28;71.07
62978;BME280;49073;42.352;23.808;2023-08-07T02:37:58;94168.38;;;17.15;71.48
62978;BME280;49073;42.352;23.808;2023-08-07T02:40:58;94160.34;;;17.11;71.97
62978;BME280;49073;42.352;23.808;2023-08-07T02:43:59;94162.56;;;17.16;71.91
62978;BME280;49073;42.352;23.808;2023-08-07T02:47:00;94165.94;;;17.24;71.86
62978;BME280;49073;42.352;23.808;2023-08-07T02:50:00;94175.19;;;17.23;71.97
62978;BME280;49073;42.352;23.808;2023-08-07T02:53:01;94173.22;;;17.24;71.68
62978;BME280;49073;42.352;23.808;2023-08-07T02:56:02;94171.44;;;17.17;72.24
62978;BME280;49073;42.352;23.808;2023-08-07T02:59:03;94170.66;;;17.16;72.99
62978;BME280;49073;42.352;23.808;2023-08-07T03:02:03;94168.47;;;17.08;72.66
62978;BME280;49073;42.352;23.808;2023-08-07T03:05:04;94166.91;;;17.10;73.38
62978;BME280;49073;42.352;23.808;2023-08-07T03:08:05;94171.56;;;17.06;73.36
62978;BME280;49073;42.352;23.808;2023-08-07T03:11:05;94174.28;;;17.06;73.55
62978;BME280;49073;42.352;23.808;2023-08-07T03:14:06;94170.41;;;17.07;73.58
62978;BME280;49073;42.352;23.808;2023-08-07T03:17:07;94181.63;;;17.02;74.43
62978;BME280;49073;42.352;23.808;2023-08-07T03:20:08;94171.97;;;17.05;73.98
62978;BME280;49073;42.352;23.808;2023-08-07T03:23:10;94186.06;;;17.16;73.60
62978;BME280;49073;42.352;23.808;2023-08-07T03:26:12;94183.19;;;16.99;73.60
62978;BME280;49073;42.352;23.808;2023-08-07T03:29:13;94192.94;;;16.90;73.79
62978;BME280;49073;42.352;23.808;2023-08-07T03:32:13;94198.84;;;17.08;73.74
62978;BME280;49073;42.352;23.808;2023-08-07T03:35:14;94203.38;;;17.15;72.76
62978;BME280;49073;42.352;23.808;2023-08-07T03:38:14;94206.47;;;17.13;73.68
62978;BME280;49073;42.352;23.808;2023-08-07T03:41:15;94207.13;;;17.21;72.69
62978;BME280;49073;42.352;23.808;2023-08-07T03:44:15;94201.09;;;17.13;72.94
62978;BME280;49073;42.352;23.808;2023-08-07T03:47:16;94200.34;;;17.13;73.08
62978;BME280;49073;42.352;23.808;2023-08-07T03:50:17;94196.13;;;17.12;73.54
62978;BME280;49073;42.352;23.808;2023-08-07T03:53:17;94193.44;;;17.12;73.33
62978;BME280;49073;42.352;23.808;2023-08-07T03:56:18;94189.75;;;16.98;74.58
62978;BME280;49073;42.352;23.808;2023-08-07T03:59:18;94189.34;;;17.00;74.00
62978;BME280;49073;42.352;23.808;2023-08-07T04:02:18;94193.66;;;16.94;74.55
62978;BME280;49073;42.352;23.808;2023-08-07T04:05:19;94198.06;;;17.08;73.66
62978;BME280;49073;42.352;23.808;2023-08-07T04:08:20;94196.00;;;17.19;73.98
62978;BME280;49073;42.352;23.808;2023-08-07T04:11:21;94191.13;;;17.10;73.66
62978;BME280;49073;42.352;23.808;2023-08-07T04:14:22;94195.03;;;17.06;73.39
62978;BME280;49073;42.352;23.808;2023-08-07T04:17:22;94193.84;;;17.07;73.73
62978;BME280;49073;42.352;23.808;2023-08-07T04:20:23;94197.19;;;17.18;73.58
62978;BME280;49073;42.352;23.808;2023-08-07T04:23:24;94199.69;;;17.01;73.89
62978;BME280;49073;42.352;23.808;2023-08-07T04:26:25;94201.19;;;17.06;74.04
62978;BME280;49073;42.352;23.808;2023-08-07T04:29:27;94200.34;;;17.13;74.14
62978;BME280;49073;42.352;23.808;2023-08-07T04:32:27;94207.38;;;17.03;74.26
62978;BME280;49073;42.352;23.808;2023-08-07T04:35:28;94211.25;;;17.02;74.51
62978;BME280;49073;42.352;23.808;2023-08-07T04:38:28;94219.31;;;17.02;74.82
62978;BME280;49073;42.352;23.808;2023-08-07T04:41:29;94214.53;;;17.13;74.04
62978;BME280;49073;42.352;23.808;2023-08-07T04:44:30;94219.22;;;17.09;74.14
62978;BME280;49073;42.352;23.808;2023-08-07T04:47:30;94226.59;;;17.05;73.71
62978;BME280;49073;42.352;23.808;2023-08-07T04:50:31;94226.03;;;17.18;73.57
62978;BME280;49073;42.352;23.808;2023-08-07T04:53:32;94222.88;;;17.23;73.09
62978;BME280;49073;42.352;23.808;2023-08-07T04:56:32;94231.97;;;17.33;72.38
62978;BME280;49073;42.352;23.808;2023-08-07T04:59:33;94227.28;;;17.37;71.82
62978;BME280;49073;42.352;23.808;2023-08-07T05:02:33;94229.50;;;17.42;71.28
62978;BME280;49073;42.352;23.808;2023-08-07T05:05:34;94226.00;;;17.45;71.04
62978;BME280;49073;42.352;23.808;2023-08-07T05:08:35;94229.97;;;17.60;70.40
62978;BME280;49073;42.352;23.808;2023-08-07T05:11:35;94234.13;;;17.69;69.96
62978;BME280;49073;42.352;23.808;2023-08-07T05:14:36;94230.25;;;17.70;70.26
62978;BME280;49073;42.352;23.808;2023-08-07T05:17:38;94236.50;;;17.87;70.73
62978;BME280;49073;42.352;23.808;2023-08-07T05:20:38;94235.66;;;17.90;70.02
62978;BME280;49073;42.352;23.808;2023-08-07T05:23:39;94232.69;;;18.08;70.23
62978;BME280;49073;42.352;23.808;2023-08-07T05:26:40;94230.91;;;18.22;69.32
62978;BME280;49073;42.352;23.808;2023-08-07T05:29:40;94232.31;;;18.30;68.69
62978;BME280;49073;42.352;23.808;2023-08-07T05:32:44;94225.19;;;18.40;67.67
62978;BME280;49073;42.352;23.808;2023-08-07T05:35:45;94214.94;;;18.51;66.95
62978;BME280;49073;42.352;23.808;2023-08-07T05:38:46;94219.63;;;18.47;66.27
62978;BME280;49073;42.352;23.808;2023-08-07T05:41:46;94217.22;;;18.53;66.60
62978;BME280;49073;42.352;23.808;2023-08-07T05:44:48;94224.69;;;18.65;65.31
62978;BME280;49073;42.352;23.808;2023-08-07T05:47:49;94225.56;;;18.79;65.25
62978;BME280;49073;42.352;23.808;2023-08-07T05:50:51;94230.47;;;19.04;64.60
62978;BME280;49073;42.352;23.808;2023-08-07T05:53:51;94225.00;;;19.24;63.92
62978;BME280;49073;42.352;23.808;2023-08-07T05:56:53;94225.19;;;19.33;61.55
62978;BME280;49073;42.352;23.808;2023-08-07T05:59:54;94211.84;;;19.43;60.31
62978;BME280;49073;42.352;23.808;2023-08-07T06:02:55;94214.91;;;19.61;60.57
62978;BME280;49073;42.352;23.808;2023-08-07T06:05:59;94221.47;;;19.77;60.13
62978;BME280;49073;42.352;23.808;2023-08-07T06:09:00;94224.44;;;19.83;58.65
62978;BME280;49073;42.352;23.808;2023-08-07T06:12:01;94232.72;;;19.92;57.40
62978;BME280;49073;42.352;23.808;2023-08-07T06:15:02;94224.16;;;19.94;56.90
62978;BME280;49073;42.352;23.808;2023-08-07T06:18:03;94210.72;;;20.06;56.57
62978;BME280;49073;42.352;23.808;2023-08-07T06:21:03;94210.34;;;20.21;56.21
62978;BME280;49073;42.352;23.808;2023-08-07T06:24:06;94212.97;;;20.25;54.95
62978;BME280;49073;42.352;23.808;2023-08-07T06:27:07;94221.53;;;20.36;53.79
62978;BME280;49073;42.352;23.808;2023-08-07T06:30:08;94221.88;;;20.38;53.55
62978;BME280;49073;42.352;23.808;2023-08-07T06:33:09;94230.66;;;20.42;51.75
62978;BME280;49073;42.352;23.808;2023-08-07T06:36:09;94234.16;;;20.56;51.59
62978;BME280;49073;42.352;23.808;2023-08-07T06:39:10;94234.38;;;20.61;52.03
62978;BME280;49073;42.352;23.808;2023-08-07T06:42:10;94249.25;;;20.70;51.40
62978;BME280;49073;42.352;23.808;2023-08-07T06:45:11;94241.75;;;20.61;50.36
62978;BME280;49073;42.352;23.808;2023-08-07T06:48:11;94241.97;;;20.67;50.51
62978;BME280;49073;42.352;23.808;2023-08-07T06:51:12;94247.19;;;20.74;51.02
62978;BME280;49073;42.352;23.808;2023-08-07T06:54:13;94244.63;;;20.83;53.08
62978;BME280;49073;42.352;23.808;2023-08-07T06:57:13;94257.44;;;20.83;52.00
62978;BME280;49073;42.352;23.808;2023-08-07T07:00:14;94252.00;;;20.83;51.34
62978;BME280;49073;42.352;23.808;2023-08-07T07:03:15;94255.47;;;20.83;51.26
62978;BME280;49073;42.352;23.808;2023-08-07T07:06:16;94258.28;;;20.80;51.42
62978;BME280;49073;42.352;23.808;2023-08-07T07:09:17;94257.22;;;20.90;51.64
62978;BME280;49073;42.352;23.808;2023-08-07T07:12:18;94255.28;;;21.03;51.41
62978;BME280;49073;42.352;23.808;2023-08-07T07:15:18;94251.50;;;21.14;51.36
62978;BME280;49073;42.352;23.808;2023-08-07T07:18:20;94248.59;;;21.21;51.53
62978;BME280;49073;42.352;23.808;2023-08-07T07:21:20;94238.94;;;21.33;50.00
62978;BME280;49073;42.352;23.808;2023-08-07T07:24:21;94249.56;;;21.40;49.68
62978;BME280;49073;42.352;23.808;2023-08-07T07:27:21;94248.59;;;21.47;49.52
62978;BME280;49073;42.352;23.808;2023-08-07T07:30:26;94245.00;;;21.63;49.02
62978;BME280;49073;42.352;23.808;2023-08-07T07:33:27;94261.28;;;21.63;47.99
62978;BME280;49073;42.352;23.808;2023-08-07T07:36:28;94265.63;;;21.73;48.40
62978;BME280;49073;42.352;23.808;2023-08-07T07:39:29;94257.25;;;21.80;47.50
62978;BME280;49073;42.352;23.808;2023-08-07T07:42:30;94260.44;;;21.66;46.71
62978;BME280;49073;42.352;23.808;2023-08-07T07:45:32;94273.84;;;21.70;46.73
62978;BME280;49073;42.352;23.808;2023-08-07T07:48:35;94278.53;;;21.82;46.97
62978;BME280;49073;42.352;23.808;2023-08-07T07:51:36;94273.22;;;21.78;46.08
62978;BME280;49073;42.352;23.808;2023-08-07T07:54:37;94262.84;;;21.99;46.81
62978;BME280;49073;42.352;23.808;2023-08-07T07:57:38;94269.53;;;22.20;46.36
62978;BME280;49073;42.352;23.808;2023-08-07T08:00:38;94263.84;;;22.28;45.20
62978;BME280;49073;42.352;23.808;2023-08-07T08:03:39;94253.75;;;22.28;45.79
62978;BME280;49073;42.352;23.808;2023-08-07T08:06:40;94248.75;;;22.27;45.08
62978;BME280;49073;42.352;23.808;2023-08-07T08:09:41;94245.38;;;22.35;45.25
62978;BME280;49073;42.352;23.808;2023-08-07T08:12:42;94248.25;;;22.54;44.64
62978;BME280;49073;42.352;23.808;2023-08-07T08:15:43;94243.63;;;22.64;44.23
62978;BME280;49073;42.352;23.808;2023-08-07T08:18:44;94240.03;;;22.67;44.78
62978;BME280;49073;42.352;23.808;2023-08-07T08:21:45;94241.34;;;22.85;43.37
62978;BME280;49073;42.352;23.808;2023-08-07T08:24:45;94235.22;;;22.93;42.35
62978;BME280;49073;42.352;23.808;2023-08-07T08:27:47;94240.50;;;22.97;42.61
62978;BME280;49073;42.352;23.808;2023-08-07T08:30:48;94241.31;;;23.07;43.23
62978;BME280;49073;42.352;23.808;2023-08-07T08:33:49;94241.22;;;23.20;42.00
62978;BME280;49073;42.352;23.808;2023-08-07T08:36:50;94226.44;;;23.21;41.80
62978;BME280;49073;42.352;23.808;2023-08-07T08:39:50;94230.34;;;23.20;40.51
62978;BME280;49073;42.352;23.808;2023-08-07T08:42:55;94230.44;;;23.38;42.08
62978;BME280;49073;42.352;23.808;2023-08-07T08:46:01;94224.41;;;23.44;41.71
62978;BME280;49073;42.352;23.808;2023-08-07T08:49:03;94236.56;;;23.61;41.69
62978;BME280;49073;42.352;23.808;2023-08-07T08:52:05;94235.69;;;23.74;41.47
62978;BME280;49073;42.352;23.808;2023-08-07T08:55:08;94237.22;;;23.93;41.84
62978;BME280;49073;42.352;23.808;2023-08-07T08:58:09;94239.94;;;23.93;41.65
62978;BME280;49073;42.352;23.808;2023-08-07T09:01:11;94227.56;;;24.02;41.50
62978;BME280;49073;42.352;23.808;2023-08-07T09:04:13;94218.53;;;24.23;41.90
62978;BME280;49073;42.352;23.808;2023-08-07T09:07:15;94217.59;;;24.45;41.24
62978;BME280;49073;42.352;23.808;2023-08-07T09:10:19;94215.91;;;24.66;41.06
62978;BME280;49073;42.352;23.808;2023-08-07T09:13:23;94213.19;;;24.76;39.45
62978;BME280;49073;42.352;23.808;2023-08-07T09:16:27;94205.00;;;24.85;40.63
62978;BME280;49073;42.352;23.808;2023-08-07T09:19:28;94198.47;;;24.92;39.92
62978;BME280;49073;42.352;23.808;2023-08-07T09:22:28;94206.25;;;25.18;40.13
62978;BME280;49073;42.352;23.808;2023-08-07T09:25:34;94196.88;;;25.09;39.01
62978;BME280;49073;42.352;23.808;2023-08-07T09:28:35;94196.94;;;25.34;39.77
62978;BME280;49073;42.352;23.808;2023-08-07T09:31:37;94194.56;;;25.26;38.30
62978;BME280;49073;42.352;23.808;2023-08-07T09:34:41;94193.56;;;25.39;38.50
62978;BME280;49073;42.352;23.808;2023-08-07T09:37:43;94191.66;;;25.64;39.35
62978;BME280;49073;42.352;23.808;2023-08-07T09:40:43;94196.72;;;25.80;37.93
62978;BME280;49073;42.352;23.808;2023-08-07T09:43:45;94192.28;;;25.83;38.08
62978;BME280;49073;42.352;23.808;2023-08-07T09:46:45;94192.13;;;25.87;37.71
62978;BME280;49073;42.352;23.808;2023-08-07T09:49:46;94185.78;;;25.80;37.28
62978;BME280;49073;42.352;23.808;2023-08-07T09:52:49;94174.44;;;25.97;37.19
62978;BME280;49073;42.352;23.808;2023-08-07T09:55:52;94171.41;;;26.19;36.67
62978;BME280;49073;42.352;23.808;2023-08-07T09:58:53;94176.16;;;25.94;36.32
62978;BME280;49073;42.352;23.808;2023-08-07T10:01:55;94173.25;;;26.13;36.31
62978;BME280;49073;42.352;23.808;2023-08-07T10:04:56;94174.25;;;26.25;36.21
62978;BME280;49073;42.352;23.808;2023-08-07T10:07:57;94174.19;;;26.34;36.07
62978;BME280;49073;42.352;23.808;2023-08-07T10:10:58;94175.31;;;26.42;35.55
62978;BME280;49073;42.352;23.808;2023-08-07T10:13:59;94169.00;;;26.51;35.12
62978;BME280;49073;42.352;23.808;2023-08-07T10:17:01;94167.88;;;26.73;35.81
62978;BME280;49073;42.352;23.808;2023-08-07T10:20:04;94173.91;;;26.77;35.24
62978;BME280;49073;42.352;23.808;2023-08-07T10:23:09;94170.72;;;26.64;35.03
62978;BME280;49073;42.352;23.808;2023-08-07T10:26:11;94170.88;;;26.75;35.08
62978;BME280;49073;42.352;23.808;2023-08-07T10:29:15;94167.97;;;26.64;34.05
62978;BME280;49073;42.352;23.808;2023-08-07T10:32:22;94173.06;;;26.71;34.63
62978;BME280;49073;42.352;23.808;2023-08-07T10:35:26;94165.13;;;26.73;35.13
62978;BME280;49073;42.352;23.808;2023-08-07T10:38:26;94165.41;;;26.75;34.14
62978;BME280;49073;42.352;23.808;2023-08-07T10:41:38;94154.69;;;26.86;34.84
62978;BME280;49073;42.352;23.808;2023-08-07T10:44:48;94160.78;;;26.81;34.76
62978;BME280;49073;42.352;23.808;2023-08-07T10:48:11;94157.41;;;26.86;35.10
62978;BME280;49073;42.352;23.808;2023-08-07T10:51:28;94160.88;;;27.02;35.56
62978;BME280;49073;42.352;23.808;2023-08-07T10:54:30;94161.72;;;27.08;34.93
62978;BME280;49073;42.352;23.808;2023-08-07T10:57:31;94155.75;;;27.25;34.29
62978;BME280;49073;42.352;23.808;2023-08-07T11:00:33;94151.06;;;27.46;35.02
62978;BME280;49073;42.352;23.808;2023-08-07T11:03:35;94145.78;;;27.42;33.47
62978;BME280;49073;42.352;23.808;2023-08-07T11:06:38;94138.50;;;27.54;34.21
62978;BME280;49073;42.352;23.808;2023-08-07T11:09:39;94137.66;;;27.90;35.85
62978;BME280;49073;42.352;23.808;2023-08-07T11:12:44;94132.88;;;27.84;33.22
62978;BME280;49073;42.352;23.808;2023-08-07T11:15:45;94133.16;;;27.66;33.62
62978;BME280;49073;42.352;23.808;2023-08-07T11:18:47;94126.13;;;27.80;33.33
62978;BME280;49073;42.352;23.808;2023-08-07T11:21:48;94133.97;;;27.93;32.91
62978;BME280;49073;42.352;23.808;2023-08-07T11:24:50;94127.59;;;28.01;32.57
62978;BME280;49073;42.352;23.808;2023-08-07T11:27:51;94123.97;;;27.90;32.13
62978;BME280;49073;42.352;23.808;2023-08-07T11:30:52;94125.81;;;27.98;32.59
62978;BME280;49073;42.352;23.808;2023-08-07T11:33:57;94125.81;;;27.98;32.30
62978;BME280;49073;42.352;23.808;2023-08-07T11:36:58;94119.91;;;28.06;32.51
62978;BME280;49073;42.352;23.808;2023-08-07T11:40:01;94123.69;;;28.08;31.78
62978;BME280;49073;42.352;23.808;2023-08-07T11:43:03;94108.75;;;28.09;32.81
62978;BME280;49073;42.352;23.808;2023-08-07T11:46:05;94107.97;;;28.29;32.45
62978;BME280;49073;42.352;23.808;2023-08-07T11:49:07;94109.34;;;28.19;32.34
62978;BME280;49073;42.352;23.808;2023-08-07T11:52:09;94113.50;;;28.35;32.18
62978;BME280;49073;42.352;23.808;2023-08-07T11:55:10;94117.44;;;28.28;31.83
62978;BME280;49073;42.352;23.808;2023-08-07T11:58:11;94108.53;;;28.13;31.90
62978;BME280;49073;42.352;23.808;2023-08-07T12:01:16;94109.03;;;28.11;32.21
62978;BME280;49073;42.352;23.808;2023-08-07T12:04:17;94110.81;;;28.41;32.38
62978;BME280;49073;42.352;23.808;2023-08-07T12:07:18;94102.44;;;28.56;31.63
62978;BME280;49073;42.352;23.808;2023-08-07T12:10:19;94117.31;;;28.75;31.69
62978;BME280;49073;42.352;23.808;2023-08-07T12:13:26;94107.00;;;28.65;31.79
62978;BME280;49073;42.352;23.808;2023-08-07T12:16:32;94092.34;;;29.00;31.93
62978;BME280;49073;42.352;23.808;2023-08-07T12:19:41;94089.97;;;29.19;31.27
62978;BME280;49073;42.352;23.808;2023-08-07T12:22:43;94088.38;;;29.07;31.18
62978;BME280;49073;42.352;23.808;2023-08-07T12:25:44;94082.16;;;29.12;30.95
62978;BME280;49073;42.352;23.808;2023-08-07T12:28:45;94091.28;;;28.92;30.64
62978;BME280;49073;42.352;23.808;2023-08-07T12:31:46;94083.66;;;29.13;31.20
62978;BME280;49073;42.352;23.808;2023-08-07T12:34:46;94087.38;;;29.04;30.61
62978;BME280;49073;42.352;23.808;2023-08-07T12:37:50;94085.34;;;28.99;30.86
62978;BME280;49073;42.352;23.808;2023-08-07T12:40:50;94083.88;;;29.03;30.68
62978;BME280;49073;42.352;23.808;2023-08-07T12:43:51;94091.34;;;29.03;30.75
62978;BME280;49073;42.352;23.808;2023-08-07T12:46:51;94095.69;;;28.83;31.02
62978;BME280;49073;42.352;23.808;2023-08-07T12:49:52;94091.06;;;28.95;30.57
62978;BME280;49073;42.352;23.808;2023-08-07T12:52:52;94096.38;;;29.10;30.47
62978;BME280;49073;42.352;23.808;2023-08-07T12:55:53;94088.94;;;29.16;30.65
62978;BME280;49073;42.352;23.808;2023-08-07T12:58:54;94103.91;;;29.15;30.44
62978;BME280;49073;42.352;23.808;2023-08-07T13:01:54;94096.06;;;29.02;30.84
62978;BME280;49073;42.352;23.808;2023-08-07T13:04:55;94091.34;;;29.03;30.84
62978;BME280;49073;42.352;23.808;2023-08-07T13:07:56;94098.06;;;28.70;30.86
62978;BME280;49073;42.352;23.808;2023-08-07T13:10:58;94095.88;;;28.42;32.08
62978;BME280;49073;42.352;23.808;2023-08-07T13:13:59;94098.44;;;27.98;31.86
62978;BME280;49073;42.352;23.808;2023-08-07T13:16:59;94090.38;;;27.89;32.25
62978;BME280;49073;42.352;23.808;2023-08-07T13:20:01;94097.13;;;27.94;33.45
62978;BME280;49073;42.352;23.808;2023-08-07T13:23:03;94086.28;;;27.79;32.99
62978;BME280;49073;42.352;23.808;2023-08-07T13:26:06;94094.72;;;27.54;32.80
62978;BME280;49073;42.352;23.808;2023-08-07T13:29:06;94092.69;;;27.34;33.76
62978;BME280;49073;42.352;23.808;2023-08-07T13:32:07;94105.41;;;27.17;33.85
62978;BME280;49073;42.352;23.808;2023-08-07T13:35:11;94093.00;;;27.00;34.45
62978;BME280;49073;42.352;23.808;2023-08-07T13:38:12;94093.66;;;27.10;34.62
62978;BME280;49073;42.352;23.808;2023-08-07T13:41:13;94098.53;;;27.06;35.00
62978;BME280;49073;42.352;23.808;2023-08-07T13:44:13;94097.03;;;27.05;34.82
62978;BME280;49073;42.352;23.808;2023-08-07T13:47:16;94093.56;;;27.05;35.11
62978;BME280;49073;42.352;23.808;2023-08-07T13:50:18;94093.91;;;27.12;35.15
62978;BME280;49073;42.352;23.808;2023-08-07T13:53:21;94097.53;;;27.04;35.39
62978;BME280;49073;42.352;23.808;2023-08-07T13:56:24;94107.13;;;26.99;35.46
62978;BME280;49073;42.352;23.808;2023-08-07T13:59:25;94104.13;;;26.97;35.34
62978;BME280;49073;42.352;23.808;2023-08-07T14:02:25;94108.91;;;27.02;35.76
62978;BME280;49073;42.352;23.808;2023-08-07T14:05:26;94107.41;;;27.01;36.04
62978;BME280;49073;42.352;23.808;2023-08-07T14:08:26;94112.06;;;26.95;35.56
62978;BME280;49073;42.352;23.808;2023-08-07T14:11:27;94109.03;;;26.78;35.21
62978;BME280;49073;42.352;23.808;2023-08-07T14:14:30;94109.94;;;26.84;35.88
62978;BME280;49073;42.352;23.808;2023-08-07T14:17:31;94106.69;;;26.70;36.07
62978;BME280;49073;42.352;23.808;2023-08-07T14:20:31;94111.13;;;26.68;35.85
62978;BME280;49073;42.352;23.808;2023-08-07T14:23:32;94105.19;;;26.69;35.95
62978;BME280;49073;42.352;23.808;2023-08-07T14:26:32;94101.44;;;26.67;36.35
62978;BME280;49073;42.352;23.808;2023-08-07T14:29:33;94096.06;;;26.57;36.52
62978;BME280;49073;42.352;23.808;2023-08-07T14:32:33;94104.56;;;26.45;36.49
62978;BME280;49073;42.352;23.808;2023-08-07T14:35:34;94113.50;;;26.45;37.04
62978;BME280;49073;42.352;23.808;2023-08-07T14:38:35;94114.94;;;26.55;37.04
62978;BME280;49073;42.352;23.808;2023-08-07T14:41:35;94114.38;;;26.51;36.91
62978;BME280;49073;42.352;23.808;2023-08-07T14:44:36;94111.63;;;26.51;37.12
62978;BME280;49073;42.352;23.808;2023-08-07T14:47:36;94116.34;;;26.51;36.97
62978;BME280;49073;42.352;23.808;2023-08-07T14:50:37;94114.72;;;26.59;37.34
62978;BME280;49073;42.352;23.808;2023-08-07T14:53:38;94113.56;;;26.81;36.95
62978;BME280;49073;42.352;23.808;2023-08-07T14:56:39;94109.16;;;26.68;36.96
62978;BME280;49073;42.352;23.808;2023-08-07T14:59:39;94099.66;;;26.49;37.07
62978;BME280;49073;42.352;23.808;2023-08-07T15:02:40;94103.78;;;26.44;37.74
62978;BME280;49073;42.352;23.808;2023-08-07T15:05:41;94102.94;;;26.38;37.70
62978;BME280;49073;42.352;23.808;2023-08-07T15:08:41;94102.38;;;26.34;37.56
62978;BME280;49073;42.352;23.808;2023-08-07T15:11:42;94108.78;;;26.31;38.40
62978;BME280;49073;42.352;23.808;2023-08-07T15:14:42;94110.69;;;26.24;38.34
62978;BME280;49073;42.352;23.808;2023-08-07T15:17:43;94101.97;;;26.11;38.55
62978;BME280;49073;42.352;23.808;2023-08-07T15:20:44;94121.25;;;26.07;38.35
62978;BME280;49073;42.352;23.808;2023-08-07T15:23:46;94116.28;;;26.06;38.80
62978;BME280;49073;42.352;23.808;2023-08-07T15:26:47;94112.72;;;25.99;39.23
62978;BME280;49073;42.352;23.808;2023-08-07T15:29:48;94110.91;;;25.96;39.61
62978;BME280;49073;42.352;23.808;2023-08-07T15:32:48;94112.19;;;25.86;39.74
62978;BME280;49073;42.352;23.808;2023-08-07T15:35:49;94119.00;;;25.91;40.02
62978;BME280;49073;42.352;23.808;2023-08-07T15:38:51;94122.00;;;25.93;40.50
62978;BME280;49073;42.352;23.808;2023-08-07T15:41:52;94121.97;;;25.78;40.95
62978;BME280;49073;42.352;23.808;2023-08-07T15:44:53;94125.06;;;25.70;40.67
62978;BME280;49073;42.352;23.808;2023-08-07T15:47:53;94124.31;;;25.70;40.88